sensor_id;sensor_type;location;lat;lon;timestamp;P1;durP1;ratioP1;P2;durP2;ratioP2
19863;SDS011;10094;48.820;9.226;2022-10-22T00:00:21;1.40;;;1.30;;
19863;SDS011;10094;48.820;9.226;2022-10-22T00:07:03;3.05;;;1.52;;
19863;SDS011;10094;48.820;9.226;2022-10-22T00:13:46;3.05;;;1.42;;
19863;SDS011;10094;48.820;9.226;2022-10-22T00:20:29;3.45;;;1.50;;
19863;SDS011;10094;48.820;9.226;2022-10-22T00:27:12;1.25;;;1.10;;
19863;SDS011;10094;48.820;9.226;2022-10-22T00:33:55;1.17;;;0.85;;
19863;SDS011;10094;48.820;9.226;2022-10-22T00:40:37;1.00;;;0.90;;
19863;SDS011;10094;48.820;9.226;2022-10-22T00:47:20;1.63;;;1.30;;
19863;SDS011;10094;48.820;9.226;2022-10-22T00:54:05;1.48;;;0.90;;
19863;SDS011;10094;48.820;9.226;2022-10-22T01:00:49;1.85;;;1.00;;
19863;SDS011;10094;48.820;9.226;2022-10-22T01:07:32;3.35;;;1.30;;
19863;SDS011;10094;48.820;9.226;2022-10-22T01:21:43;0.90;;;0.90;;
19863;SDS011;10094;48.820;9.226;2022-10-22T01:35:26;1.70;;;1.10;;
19863;SDS011;10094;48.820;9.226;2022-10-22T01:42:18;2.47;;;1.00;;
19863;SDS011;10094;48.820;9.226;2022-10-22T01:49:26;2.50;;;1.30;;
19863;SDS011;10094;48.820;9.226;2022-10-22T01:56:38;0.90;;;0.90;;
19863;SDS011;10094;48.820;9.226;2022-10-22T02:03:55;2.55;;;1.30;;
19863;SDS011;10094;48.820;9.226;2022-10-22T02:10:58;1.58;;;1.20;;
19863;SDS011;10094;48.820;9.226;2022-10-22T02:17:41;5.53;;;1.30;;
19863;SDS011;10094;48.820;9.226;2022-10-22T02:24:26;4.07;;;1.08;;
19863;SDS011;10094;48.820;9.226;2022-10-22T02:31:22;1.48;;;1.20;;
19863;SDS011;10094;48.820;9.226;2022-10-22T02:38:08;1.98;;;1.13;;
19863;SDS011;10094;48.820;9.226;2022-10-22T02:44:53;6.88;;;1.13;;
19863;SDS011;10094;48.820;9.226;2022-10-22T02:51:35;4.78;;;1.50;;
19863;SDS011;10094;48.820;9.226;2022-10-22T02:58:17;1.63;;;1.25;;
19863;SDS011;10094;48.820;9.226;2022-10-22T03:05:00;2.15;;;1.05;;
19863;SDS011;10094;48.820;9.226;2022-10-22T03:11:42;3.03;;;1.10;;
19863;SDS011;10094;48.820;9.226;2022-10-22T03:18:25;1.20;;;0.88;;
19863;SDS011;10094;48.820;9.226;2022-10-22T03:25:09;1.73;;;0.90;;
19863;SDS011;10094;48.820;9.226;2022-10-22T03:31:57;2.08;;;1.20;;
19863;SDS011;10094;48.820;9.226;2022-10-22T03:38:39;3.90;;;1.17;;
19863;SDS011;10094;48.820;9.226;2022-10-22T03:45:22;4.25;;;1.05;;
19863;SDS011;10094;48.820;9.226;2022-10-22T03:52:06;1.00;;;0.90;;
19863;SDS011;10094;48.820;9.226;2022-10-22T03:58:55;1.55;;;1.05;;
19863;SDS011;10094;48.820;9.226;2022-10-22T04:05:38;2.67;;;1.10;;
19863;SDS011;10094;48.820;9.226;2022-10-22T04:12:21;1.73;;;1.00;;
19863;SDS011;10094;48.820;9.226;2022-10-22T04:19:04;1.40;;;1.30;;
19863;SDS011;10094;48.820;9.226;2022-10-22T04:25:46;1.77;;;1.10;;
19863;SDS011;10094;48.820;9.226;2022-10-22T04:32:29;2.28;;;1.00;;
19863;SDS011;10094;48.820;9.226;2022-10-22T04:39:11;3.55;;;1.58;;
19863;SDS011;10094;48.820;9.226;2022-10-22T04:45:53;1.83;;;1.20;;
19863;SDS011;10094;48.820;9.226;2022-10-22T04:52:39;2.70;;;0.90;;
19863;SDS011;10094;48.820;9.226;2022-10-22T04:59:21;1.23;;;1.13;;
19863;SDS011;10094;48.820;9.226;2022-10-22T05:06:04;2.92;;;1.10;;
19863;SDS011;10094;48.820;9.226;2022-10-22T05:12:47;1.65;;;0.90;;
19863;SDS011;10094;48.820;9.226;2022-10-22T05:19:30;1.08;;;0.98;;
19863;SDS011;10094;48.820;9.226;2022-10-22T05:26:13;0.98;;;0.90;;
19863;SDS011;10094;48.820;9.226;2022-10-22T05:32:58;3.65;;;1.02;;
19863;SDS011;10094;48.820;9.226;2022-10-22T05:39:40;2.58;;;0.98;;
19863;SDS011;10094;48.820;9.226;2022-10-22T05:46:24;2.03;;;1.10;;
19863;SDS011;10094;48.820;9.226;2022-10-22T05:53:08;1.02;;;0.80;;
19863;SDS011;10094;48.820;9.226;2022-10-22T05:59:51;2.90;;;1.13;;
19863;SDS011;10094;48.820;9.226;2022-10-22T06:06:43;1.65;;;0.90;;
19863;SDS011;10094;48.820;9.226;2022-10-22T06:13:27;1.52;;;1.10;;
19863;SDS011;10094;48.820;9.226;2022-10-22T06:20:10;5.53;;;1.40;;
19863;SDS011;10094;48.820;9.226;2022-10-22T06:26:53;1.20;;;1.10;;
19863;SDS011;10094;48.820;9.226;2022-10-22T06:33:35;2.03;;;1.40;;
19863;SDS011;10094;48.820;9.226;2022-10-22T06:40:23;1.83;;;1.27;;
19863;SDS011;10094;48.820;9.226;2022-10-22T06:47:05;2.55;;;1.85;;
19863;SDS011;10094;48.820;9.226;2022-10-22T06:53:48;1.98;;;1.30;;
19863;SDS011;10094;48.820;9.226;2022-10-22T07:00:30;3.40;;;1.38;;
19863;SDS011;10094;48.820;9.226;2022-10-22T07:07:34;1.88;;;1.35;;
19863;SDS011;10094;48.820;9.226;2022-10-22T07:14:16;3.85;;;1.65;;
19863;SDS011;10094;48.820;9.226;2022-10-22T07:20:59;9.05;;;2.55;;
19863;SDS011;10094;48.820;9.226;2022-10-22T07:27:42;4.90;;;1.75;;
19863;SDS011;10094;48.820;9.226;2022-10-22T07:34:24;4.38;;;1.83;;
19863;SDS011;10094;48.820;9.226;2022-10-22T07:41:07;3.58;;;3.17;;
19863;SDS011;10094;48.820;9.226;2022-10-22T07:47:50;3.65;;;1.55;;
19863;SDS011;10094;48.820;9.226;2022-10-22T07:54:33;1.60;;;1.30;;
19863;SDS011;10094;48.820;9.226;2022-10-22T08:01:15;3.53;;;1.45;;
19863;SDS011;10094;48.820;9.226;2022-10-22T08:07:58;2.55;;;1.60;;
19863;SDS011;10094;48.820;9.226;2022-10-22T08:14:40;3.13;;;1.35;;
19863;SDS011;10094;48.820;9.226;2022-10-22T08:21:23;4.60;;;2.08;;
19863;SDS011;10094;48.820;9.226;2022-10-22T08:28:07;4.68;;;1.90;;
19863;SDS011;10094;48.820;9.226;2022-10-22T08:34:50;4.68;;;2.30;;
19863;SDS011;10094;48.820;9.226;2022-10-22T08:41:34;1.63;;;1.33;;
19863;SDS011;10094;48.820;9.226;2022-10-22T08:55:27;4.50;;;1.30;;
19863;SDS011;10094;48.820;9.226;2022-10-22T09:02:21;3.10;;;1.20;;
19863;SDS011;10094;48.820;9.226;2022-10-22T09:09:15;2.00;;;1.30;;
19863;SDS011;10094;48.820;9.226;2022-10-22T09:23:46;2.20;;;1.30;;
19863;SDS011;10094;48.820;9.226;2022-10-22T09:30:39;3.70;;;1.40;;
19863;SDS011;10094;48.820;9.226;2022-10-22T09:37:26;1.20;;;1.10;;
19863;SDS011;10094;48.820;9.226;2022-10-22T09:44:11;1.75;;;1.15;;
19863;SDS011;10094;48.820;9.226;2022-10-22T09:50:54;2.63;;;1.50;;
19863;SDS011;10094;48.820;9.226;2022-10-22T09:57:51;2.55;;;1.63;;
19863;SDS011;10094;48.820;9.226;2022-10-22T10:04:39;1.45;;;1.05;;
19863;SDS011;10094;48.820;9.226;2022-10-22T10:12:08;2.25;;;1.20;;
19863;SDS011;10094;48.820;9.226;2022-10-22T10:33:27;1.00;;;0.90;;
19863;SDS011;10094;48.820;9.226;2022-10-22T10:54:14;2.13;;;1.17;;
19863;SDS011;10094;48.820;9.226;2022-10-22T11:22:09;2.65;;;1.45;;
19863;SDS011;10094;48.820;9.226;2022-10-22T11:28:53;2.33;;;1.30;;
19863;SDS011;10094;48.820;9.226;2022-10-22T11:35:44;2.45;;;1.10;;
19863;SDS011;10094;48.820;9.226;2022-10-22T11:49:25;1.63;;;1.20;;
19863;SDS011;10094;48.820;9.226;2022-10-22T11:56:35;3.08;;;1.20;;
19863;SDS011;10094;48.820;9.226;2022-10-22T12:10:21;4.05;;;2.10;;
19863;SDS011;10094;48.820;9.226;2022-10-22T12:17:09;1.52;;;1.25;;
19863;SDS011;10094;48.820;9.226;2022-10-22T12:23:54;1.73;;;1.10;;
19863;SDS011;10094;48.820;9.226;2022-10-22T12:30:37;3.63;;;1.55;;
19863;SDS011;10094;48.820;9.226;2022-10-22T12:37:20;1.65;;;1.27;;
19863;SDS011;10094;48.820;9.226;2022-10-22T12:44:02;1.63;;;1.08;;
19863;SDS011;10094;48.820;9.226;2022-10-22T12:50:47;2.80;;;1.40;;
19863;SDS011;10094;48.820;9.226;2022-10-22T12:57:32;3.03;;;1.30;;
19863;SDS011;10094;48.820;9.226;2022-10-22T13:11:19;4.50;;;1.30;;
19863;SDS011;10094;48.820;9.226;2022-10-22T13:18:02;2.38;;;1.20;;
19863;SDS011;10094;48.820;9.226;2022-10-22T13:24:49;5.50;;;1.55;;
19863;SDS011;10094;48.820;9.226;2022-10-22T13:31:32;1.13;;;1.00;;
19863;SDS011;10094;48.820;9.226;2022-10-22T13:38:16;3.08;;;1.30;;
19863;SDS011;10094;48.820;9.226;2022-10-22T13:45:00;3.28;;;1.20;;
19863;SDS011;10094;48.820;9.226;2022-10-22T13:51:42;3.10;;;1.25;;
19863;SDS011;10094;48.820;9.226;2022-10-22T13:58:26;3.90;;;1.13;;
19863;SDS011;10094;48.820;9.226;2022-10-22T14:05:09;2.20;;;1.33;;
19863;SDS011;10094;48.820;9.226;2022-10-22T14:11:51;4.93;;;1.60;;
19863;SDS011;10094;48.820;9.226;2022-10-22T14:18:34;2.15;;;1.00;;
19863;SDS011;10094;48.820;9.226;2022-10-22T14:25:18;2.88;;;1.10;;
19863;SDS011;10094;48.820;9.226;2022-10-22T14:32:02;2.78;;;1.60;;
19863;SDS011;10094;48.820;9.226;2022-10-22T14:38:47;1.98;;;1.30;;
19863;SDS011;10094;48.820;9.226;2022-10-22T14:45:29;2.92;;;1.50;;
19863;SDS011;10094;48.820;9.226;2022-10-22T14:52:12;3.28;;;1.50;;
19863;SDS011;10094;48.820;9.226;2022-10-22T14:58:56;5.55;;;1.38;;
19863;SDS011;10094;48.820;9.226;2022-10-22T15:05:41;2.70;;;1.40;;
19863;SDS011;10094;48.820;9.226;2022-10-22T15:12:27;4.85;;;1.90;;
19863;SDS011;10094;48.820;9.226;2022-10-22T15:19:09;3.05;;;1.40;;
19863;SDS011;10094;48.820;9.226;2022-10-22T15:25:52;2.83;;;1.08;;
19863;SDS011;10094;48.820;9.226;2022-10-22T15:32:35;4.50;;;1.65;;
19863;SDS011;10094;48.820;9.226;2022-10-22T15:39:17;4.90;;;1.60;;
19863;SDS011;10094;48.820;9.226;2022-10-22T15:46:13;4.97;;;2.50;;
19863;SDS011;10094;48.820;9.226;2022-10-22T15:52:57;8.07;;;2.45;;
19863;SDS011;10094;48.820;9.226;2022-10-22T15:59:39;6.18;;;2.50;;
19863;SDS011;10094;48.820;9.226;2022-10-22T16:06:22;4.82;;;2.30;;
19863;SDS011;10094;48.820;9.226;2022-10-22T16:13:04;7.20;;;2.60;;
19863;SDS011;10094;48.820;9.226;2022-10-22T16:19:47;10.90;;;5.05;;
19863;SDS011;10094;48.820;9.226;2022-10-22T16:26:29;9.10;;;3.08;;
19863;SDS011;10094;48.820;9.226;2022-10-22T16:33:11;11.73;;;3.70;;
19863;SDS011;10094;48.820;9.226;2022-10-22T16:39:54;7.00;;;3.88;;
19863;SDS011;10094;48.820;9.226;2022-10-22T16:46:36;12.38;;;4.15;;
19863;SDS011;10094;48.820;9.226;2022-10-22T16:53:19;7.78;;;4.00;;
19863;SDS011;10094;48.820;9.226;2022-10-22T17:00:03;7.35;;;3.58;;
19863;SDS011;10094;48.820;9.226;2022-10-22T17:06:46;10.68;;;3.38;;
19863;SDS011;10094;48.820;9.226;2022-10-22T17:13:28;9.75;;;3.53;;
19863;SDS011;10094;48.820;9.226;2022-10-22T17:20:11;10.52;;;4.03;;
19863;SDS011;10094;48.820;9.226;2022-10-22T17:27:11;6.85;;;3.72;;
19863;SDS011;10094;48.820;9.226;2022-10-22T17:33:55;8.38;;;3.80;;
19863;SDS011;10094;48.820;9.226;2022-10-22T17:40:38;7.03;;;4.05;;
19863;SDS011;10094;48.820;9.226;2022-10-22T17:47:20;7.90;;;3.63;;
19863;SDS011;10094;48.820;9.226;2022-10-22T17:54:03;7.28;;;3.42;;
19863;SDS011;10094;48.820;9.226;2022-10-22T18:00:50;10.43;;;4.35;;
19863;SDS011;10094;48.820;9.226;2022-10-22T18:07:33;7.13;;;3.70;;
19863;SDS011;10094;48.820;9.226;2022-10-22T18:14:16;14.13;;;3.85;;
19863;SDS011;10094;48.820;9.226;2022-10-22T18:20:59;9.43;;;4.65;;
19863;SDS011;10094;48.820;9.226;2022-10-22T18:27:42;8.93;;;4.53;;
19863;SDS011;10094;48.820;9.226;2022-10-22T18:34:28;10.02;;;5.22;;
19863;SDS011;10094;48.820;9.226;2022-10-22T18:41:12;8.98;;;4.32;;
19863;SDS011;10094;48.820;9.226;2022-10-22T18:47:54;9.93;;;4.55;;
19863;SDS011;10094;48.820;9.226;2022-10-22T18:54:40;8.98;;;4.38;;
19863;SDS011;10094;48.820;9.226;2022-10-22T19:01:28;11.20;;;5.40;;
19863;SDS011;10094;48.820;9.226;2022-10-22T19:08:11;11.65;;;4.95;;
19863;SDS011;10094;48.820;9.226;2022-10-22T19:14:54;10.05;;;4.85;;
19863;SDS011;10094;48.820;9.226;2022-10-22T19:21:37;8.40;;;4.65;;
19863;SDS011;10094;48.820;9.226;2022-10-22T19:28:19;9.07;;;4.53;;
19863;SDS011;10094;48.820;9.226;2022-10-22T19:35:02;9.60;;;5.10;;
19863;SDS011;10094;48.820;9.226;2022-10-22T19:41:44;8.93;;;5.57;;
19863;SDS011;10094;48.820;9.226;2022-10-22T19:48:27;9.93;;;4.47;;
19863;SDS011;10094;48.820;9.226;2022-10-22T19:55:10;9.63;;;4.68;;
19863;SDS011;10094;48.820;9.226;2022-10-22T20:01:52;9.52;;;4.57;;
19863;SDS011;10094;48.820;9.226;2022-10-22T20:08:55;5.60;;;3.70;;
19863;SDS011;10094;48.820;9.226;2022-10-22T20:15:38;5.28;;;3.42;;
19863;SDS011;10094;48.820;9.226;2022-10-22T20:22:29;7.28;;;4.18;;
19863;SDS011;10094;48.820;9.226;2022-10-22T20:29:12;8.35;;;4.43;;
19863;SDS011;10094;48.820;9.226;2022-10-22T20:36:02;5.88;;;4.13;;
19863;SDS011;10094;48.820;9.226;2022-10-22T20:42:46;9.80;;;4.15;;
19863;SDS011;10094;48.820;9.226;2022-10-22T20:49:30;5.63;;;3.95;;
19863;SDS011;10094;48.820;9.226;2022-10-22T20:56:13;9.55;;;4.30;;
19863;SDS011;10094;48.820;9.226;2022-10-22T21:02:56;7.20;;;3.85;;
19863;SDS011;10094;48.820;9.226;2022-10-22T21:09:38;9.40;;;4.28;;
19863;SDS011;10094;48.820;9.226;2022-10-22T21:16:21;10.32;;;4.20;;
19863;SDS011;10094;48.820;9.226;2022-10-22T21:23:03;8.48;;;4.30;;
19863;SDS011;10094;48.820;9.226;2022-10-22T21:29:46;9.77;;;4.32;;
19863;SDS011;10094;48.820;9.226;2022-10-22T21:36:29;9.18;;;4.40;;
19863;SDS011;10094;48.820;9.226;2022-10-22T21:43:11;7.00;;;4.95;;
19863;SDS011;10094;48.820;9.226;2022-10-22T21:49:54;9.40;;;4.78;;
19863;SDS011;10094;48.820;9.226;2022-10-22T21:56:36;9.57;;;5.18;;
19863;SDS011;10094;48.820;9.226;2022-10-22T22:03:20;10.93;;;4.97;;
19863;SDS011;10094;48.820;9.226;2022-10-22T22:10:03;7.63;;;4.57;;
19863;SDS011;10094;48.820;9.226;2022-10-22T22:16:46;9.05;;;4.20;;
19863;SDS011;10094;48.820;9.226;2022-10-22T22:23:29;12.45;;;4.63;;
19863;SDS011;10094;48.820;9.226;2022-10-22T22:30:11;5.80;;;4.65;;
19863;SDS011;10094;48.820;9.226;2022-10-22T22:36:54;7.72;;;4.65;;
19863;SDS011;10094;48.820;9.226;2022-10-22T22:43:36;9.60;;;4.50;;
19863;SDS011;10094;48.820;9.226;2022-10-22T22:50:19;8.57;;;4.45;;
19863;SDS011;10094;48.820;9.226;2022-10-22T22:57:02;9.13;;;4.55;;
19863;SDS011;10094;48.820;9.226;2022-10-22T23:03:45;12.02;;;5.43;;
19863;SDS011;10094;48.820;9.226;2022-10-22T23:10:29;10.68;;;4.82;;
19863;SDS011;10094;48.820;9.226;2022-10-22T23:17:11;13.20;;;5.10;;
19863;SDS011;10094;48.820;9.226;2022-10-22T23:23:55;8.57;;;4.90;;
19863;SDS011;10094;48.820;9.226;2022-10-22T23:30:42;10.98;;;4.60;;
19863;SDS011;10094;48.820;9.226;2022-10-22T23:37:25;8.60;;;4.70;;
19863;SDS011;10094;48.820;9.226;2022-10-22T23:44:08;5.95;;;4.15;;
19863;SDS011;10094;48.820;9.226;2022-10-22T23:50:51;7.00;;;5.13;;
19863;SDS011;10094;48.820;9.226;2022-10-22T23:57:39;10.00;;;6.10;;
